NKS460 KLGA-KDTW
Flight info
| Callsign | NKS460 |
|---|---|
| Flight time | N/A |
| Altitude | 34000 |
| Route | GAYEL J95 CFB TRAAD JACCI |
| Aircraft | A320/M-SDE3FGHIRWXYZ/LB1 |
Departure
| Time | 2026-05-07 22:59 |
|---|---|
| Airport | LaGuardia Airport (KLGA) |
Arrival
| Time | N/A |
|---|---|
| Airport | Detroit Metropolitan Wayne County Airport (KDTW) |
| Time | Latitude | Longitude | Altitude | Speed | Heading |
|---|---|---|---|---|---|
| 2026-05-07 22:40 | 40.77401 | -73.88348 | 11 ft | 0 kts | 248° |
| 2026-05-07 22:48 | 40.77403 | -73.88341 | 11 ft | 2 kts | 248° |
| 2026-05-07 22:48 | 40.77408 | -73.88323 | 12 ft | 2 kts | 248° |
| 2026-05-07 22:49 | 40.77414 | -73.88305 | 12 ft | 2 kts | 248° |
| 2026-05-07 22:49 | 40.77419 | -73.88287 | 12 ft | 2 kts | 248° |
| 2026-05-07 22:49 | 40.77423 | -73.88269 | 12 ft | 2 kts | 283° |
| 2026-05-07 22:49 | 40.77415 | -73.88252 | 13 ft | 2 kts | 333° |
| 2026-05-07 22:50 | 40.77406 | -73.88249 | 13 ft | 0 kts | 4° |
| 2026-05-07 22:50 | 40.77398 | -73.88251 | 13 ft | 0 kts | 8° |
| 2026-05-07 22:52 | 40.77408 | -73.88249 | 13 ft | 5 kts | 10° |
| 2026-05-07 22:52 | 40.77461 | -73.88213 | 12 ft | 10 kts | 32° |
| 2026-05-07 22:52 | 40.77523 | -73.88161 | 13 ft | 10 kts | 32° |
| 2026-05-07 22:53 | 40.77581 | -73.88113 | 14 ft | 9 kts | 32° |
| 2026-05-07 22:53 | 40.77630 | -73.88073 | 16 ft | 8 kts | 32° |
| 2026-05-07 22:53 | 40.77680 | -73.88032 | 15 ft | 8 kts | 32° |
| 2026-05-07 22:53 | 40.77735 | -73.87986 | 15 ft | 9 kts | 32° |
| 2026-05-07 22:54 | 40.77800 | -73.87932 | 14 ft | 12 kts | 32° |
| 2026-05-07 22:54 | 40.77880 | -73.87865 | 12 ft | 14 kts | 32° |
| 2026-05-07 22:54 | 40.77959 | -73.87800 | 12 ft | 7 kts | 32° |
| 2026-05-07 22:54 | 40.77998 | -73.87777 | 12 ft | 5 kts | 346° |
| 2026-05-07 22:55 | 40.78030 | -73.87821 | 12 ft | 7 kts | 328° |
| 2026-05-07 22:55 | 40.78088 | -73.87841 | 11 ft | 9 kts | 347° |
| 2026-05-07 22:55 | 40.78123 | -73.87852 | 10 ft | 0 kts | 347° |
| 2026-05-07 22:57 | 40.78124 | -73.87852 | 10 ft | 0 kts | 347° |
| 2026-05-07 22:57 | 40.78147 | -73.87859 | 10 ft | 6 kts | 346° |
| 2026-05-07 22:57 | 40.78210 | -73.87852 | 9 ft | 8 kts | 28° |
| 2026-05-07 22:57 | 40.78220 | -73.87831 | 9 ft | 2 kts | 110° |
| 2026-05-07 22:58 | 40.78218 | -73.87828 | 9 ft | 0 kts | 122° |
| 2026-05-07 22:58 | 40.78217 | -73.87825 | 9 ft | 5 kts | 122° |
| 2026-05-07 22:58 | 40.78050 | -73.87476 | 12 ft | 82 kts | 122° |
| 2026-05-07 22:58 | 40.77620 | -73.86576 | 10 ft | 146 kts | 122° |
| 2026-05-07 22:59 | 40.77024 | -73.85332 | 296 ft | 166 kts | 117° |
| 2026-05-07 22:59 | 40.76848 | -73.83890 | 708 ft | 171 kts | 69° |
| 2026-05-07 22:59 | 40.77640 | -73.82644 | 912 ft | 194 kts | 26° |
| 2026-05-07 22:59 | 40.78991 | -73.82099 | 1135 ft | 217 kts | 0° |
| 2026-05-07 23:00 | 40.80578 | -73.82372 | 1387 ft | 242 kts | 342° |
| 2026-05-07 23:00 | 40.82185 | -73.83317 | 1713 ft | 265 kts | 329° |
| 2026-05-07 23:00 | 40.83736 | -73.84778 | 2135 ft | 284 kts | 320° |
| 2026-05-07 23:00 | 40.85183 | -73.86646 | 2620 ft | 300 kts | 312° |
| 2026-05-07 23:01 | 40.86480 | -73.88869 | 3179 ft | 314 kts | 305° |
| 2026-05-07 23:01 | 40.87718 | -73.91235 | 4113 ft | 313 kts | 308° |
| 2026-05-07 23:01 | 40.89045 | -73.93386 | 5317 ft | 303 kts | 309° |
| 2026-05-07 23:01 | 40.90359 | -73.95468 | 6514 ft | 292 kts | 308° |
| 2026-05-07 23:02 | 40.91609 | -73.97472 | 7700 ft | 281 kts | 307° |
| 2026-05-07 23:02 | 40.92793 | -73.99399 | 8861 ft | 269 kts | 306° |
| 2026-05-07 23:02 | 40.93937 | -74.01282 | 9872 ft | 262 kts | 305° |
| 2026-05-07 23:02 | 40.95076 | -74.03175 | 10527 ft | 267 kts | 304° |
| 2026-05-07 23:03 | 40.96251 | -74.05149 | 10907 ft | 282 kts | 304° |
| 2026-05-07 23:03 | 40.97498 | -74.07250 | 11307 ft | 294 kts | 304° |
| 2026-05-07 23:03 | 40.98766 | -74.09383 | 11930 ft | 298 kts | 303° |
| 2026-05-07 23:03 | 41.00046 | -74.11537 | 12590 ft | 300 kts | 303° |
| 2026-05-07 23:04 | 41.01322 | -74.13689 | 13234 ft | 301 kts | 303° |
| 2026-05-07 23:04 | 41.02609 | -74.15864 | 13849 ft | 304 kts | 302° |
| 2026-05-07 23:04 | 41.03919 | -74.18075 | 14445 ft | 306 kts | 302° |
| 2026-05-07 23:04 | 41.05229 | -74.20294 | 15002 ft | 309 kts | 301° |
| 2026-05-07 23:05 | 41.06554 | -74.22540 | 15548 ft | 313 kts | 301° |
| 2026-05-07 23:05 | 41.07901 | -74.24824 | 16113 ft | 316 kts | 300° |
| 2026-05-07 23:05 | 41.09271 | -74.27149 | 16634 ft | 319 kts | 300° |
| 2026-05-07 23:05 | 41.10636 | -74.29469 | 17218 ft | 321 kts | 300° |
| 2026-05-07 23:06 | 41.12013 | -74.31811 | 17726 ft | 325 kts | 299° |
| 2026-05-07 23:06 | 41.13392 | -74.34156 | 18175 ft | 328 kts | 299° |
| 2026-05-07 23:06 | 41.14812 | -74.36578 | 18665 ft | 331 kts | 299° |
| 2026-05-07 23:06 | 41.16207 | -74.38959 | 19156 ft | 332 kts | 299° |
| 2026-05-07 23:07 | 41.17629 | -74.41388 | 19660 ft | 334 kts | 299° |
| 2026-05-07 23:07 | 41.19055 | -74.43823 | 20180 ft | 335 kts | 298° |
| 2026-05-07 23:07 | 41.20475 | -74.46248 | 20627 ft | 337 kts | 298° |
| 2026-05-07 23:07 | 41.21916 | -74.48711 | 21041 ft | 339 kts | 298° |
| 2026-05-07 23:08 | 41.23363 | -74.51189 | 21501 ft | 340 kts | 298° |
| 2026-05-07 23:08 | 41.24812 | -74.53667 | 21941 ft | 342 kts | 298° |
| 2026-05-07 23:08 | 41.26261 | -74.56147 | 22398 ft | 342 kts | 298° |
| 2026-05-07 23:08 | 41.27713 | -74.58633 | 22975 ft | 339 kts | 298° |
| 2026-05-07 23:09 | 41.29157 | -74.61107 | 23436 ft | 338 kts | 298° |
| 2026-05-07 23:09 | 41.30600 | -74.63589 | 23856 ft | 339 kts | 298° |
| 2026-05-07 23:09 | 41.32031 | -74.66052 | 24240 ft | 341 kts | 297° |
| 2026-05-07 23:09 | 41.33477 | -74.68542 | 24651 ft | 342 kts | 297° |
| 2026-05-07 23:10 | 41.34927 | -74.71043 | 25041 ft | 344 kts | 297° |
| 2026-05-07 23:10 | 41.36395 | -74.73573 | 25419 ft | 345 kts | 297° |
| 2026-05-07 23:10 | 41.37865 | -74.76108 | 25806 ft | 346 kts | 297° |
| 2026-05-07 23:10 | 41.39336 | -74.78649 | 26193 ft | 347 kts | 297° |
| 2026-05-07 23:11 | 41.40800 | -74.81178 | 26547 ft | 349 kts | 297° |
| 2026-05-07 23:11 | 41.42286 | -74.83750 | 26910 ft | 350 kts | 297° |
| 2026-05-07 23:11 | 41.43776 | -74.86325 | 27256 ft | 352 kts | 297° |
| 2026-05-07 23:11 | 41.45266 | -74.88907 | 27596 ft | 353 kts | 297° |
| 2026-05-07 23:12 | 41.46748 | -74.91478 | 27898 ft | 355 kts | 297° |
| 2026-05-07 23:12 | 41.48260 | -74.94103 | 28244 ft | 356 kts | 297° |
| 2026-05-07 23:12 | 41.49761 | -74.96706 | 28601 ft | 356 kts | 297° |
| 2026-05-07 23:12 | 41.51259 | -74.99313 | 28933 ft | 357 kts | 297° |
| 2026-05-07 23:13 | 41.52777 | -75.01952 | 29246 ft | 358 kts | 297° |
| 2026-05-07 23:13 | 41.54298 | -75.04598 | 29521 ft | 360 kts | 297° |
| 2026-05-07 23:13 | 41.55806 | -75.07229 | 29796 ft | 361 kts | 297° |
| 2026-05-07 23:13 | 41.57352 | -75.09925 | 30091 ft | 362 kts | 297° |
| 2026-05-07 23:14 | 41.58876 | -75.12584 | 30379 ft | 362 kts | 297° |
| 2026-05-07 23:14 | 41.60403 | -75.15251 | 30638 ft | 364 kts | 297° |
| 2026-05-07 23:14 | 41.61944 | -75.17950 | 30843 ft | 366 kts | 297° |
| 2026-05-07 23:14 | 41.63483 | -75.20647 | 31059 ft | 367 kts | 297° |
| 2026-05-07 23:15 | 41.65041 | -75.23371 | 31281 ft | 369 kts | 297° |
| 2026-05-07 23:15 | 41.66586 | -75.26084 | 31483 ft | 371 kts | 297° |
| 2026-05-07 23:15 | 41.68162 | -75.28846 | 31698 ft | 372 kts | 297° |
| 2026-05-07 23:15 | 41.69722 | -75.31589 | 31882 ft | 375 kts | 297° |
| 2026-05-07 23:16 | 41.71304 | -75.34374 | 32069 ft | 377 kts | 297° |
| 2026-05-07 23:16 | 41.72887 | -75.37161 | 32266 ft | 378 kts | 297° |
| 2026-05-07 23:16 | 41.74469 | -75.39945 | 32487 ft | 378 kts | 298° |
| 2026-05-07 23:16 | 41.76067 | -75.42762 | 32651 ft | 380 kts | 297° |
| 2026-05-07 23:17 | 41.77653 | -75.45559 | 32791 ft | 381 kts | 297° |
| 2026-05-07 23:17 | 41.79260 | -75.48399 | 32944 ft | 383 kts | 298° |
| 2026-05-07 23:17 | 41.80850 | -75.51211 | 33120 ft | 383 kts | 298° |
| 2026-05-07 23:17 | 41.82456 | -75.54055 | 33303 ft | 383 kts | 298° |
| 2026-05-07 23:18 | 41.84064 | -75.56901 | 33443 ft | 384 kts | 298° |
| 2026-05-07 23:18 | 41.85667 | -75.59744 | 33551 ft | 386 kts | 298° |
| 2026-05-07 23:18 | 41.87287 | -75.62622 | 33712 ft | 386 kts | 298° |
| 2026-05-07 23:18 | 41.88905 | -75.65494 | 33858 ft | 387 kts | 298° |
| 2026-05-07 23:19 | 41.90519 | -75.68366 | 33883 ft | 388 kts | 297° |
| 2026-05-07 23:19 | 41.93772 | -75.74155 | 33890 ft | 388 kts | 297° |
| 2026-05-07 23:20 | 41.97014 | -75.79942 | 33894 ft | 388 kts | 297° |
| 2026-05-07 23:20 | 42.00238 | -75.85709 | 33894 ft | 388 kts | 298° |
| 2026-05-07 23:21 | 42.03474 | -75.91512 | 33897 ft | 387 kts | 297° |
| 2026-05-07 23:21 | 42.06702 | -75.97312 | 33895 ft | 389 kts | 298° |
| 2026-05-07 23:22 | 42.09930 | -76.03121 | 33893 ft | 389 kts | 297° |
| 2026-05-07 23:22 | 42.12734 | -76.09215 | 33891 ft | 378 kts | 288° |
| 2026-05-07 23:23 | 42.14368 | -76.15836 | 33888 ft | 370 kts | 277° |
| 2026-05-07 23:23 | 42.15342 | -76.22606 | 33890 ft | 370 kts | 276° |
| 2026-05-07 23:24 | 42.16290 | -76.29404 | 33883 ft | 371 kts | 276° |
| 2026-05-07 23:24 | 42.17228 | -76.36187 | 33885 ft | 371 kts | 276° |
| 2026-05-07 23:25 | 42.18161 | -76.43016 | 33883 ft | 371 kts | 276° |
| 2026-05-07 23:25 | 42.19091 | -76.49854 | 33885 ft | 372 kts | 276° |
| 2026-05-07 23:26 | 42.20011 | -76.56647 | 33891 ft | 371 kts | 276° |
| 2026-05-07 23:26 | 42.20930 | -76.63483 | 33884 ft | 371 kts | 276° |
| 2026-05-07 23:27 | 42.22299 | -76.73714 | 33886 ft | 370 kts | 276° |
| 2026-05-07 23:27 | 42.23208 | -76.80529 | 33884 ft | 371 kts | 276° |
| 2026-05-07 23:28 | 42.24116 | -76.87362 | 33878 ft | 371 kts | 275° |
| 2026-05-07 23:28 | 42.25016 | -76.94219 | 33885 ft | 372 kts | 276° |